sensor_id;sensor_type;location;lat;lon;timestamp;P1;durP1;ratioP1;P2;durP2;ratioP2
29044;SDS011;16133;49.486;12.176;2022-12-18T00:00:26;76.85;;;27.95;;
29044;SDS011;16133;49.486;12.176;2022-12-18T00:02:51;80.50;;;27.40;;
29044;SDS011;16133;49.486;12.176;2022-12-18T00:05:17;81.63;;;26.95;;
29044;SDS011;16133;49.486;12.176;2022-12-18T00:07:42;88.55;;;27.35;;
29044;SDS011;16133;49.486;12.176;2022-12-18T00:10:07;75.80;;;27.60;;
29044;SDS011;16133;49.486;12.176;2022-12-18T00:12:33;78.85;;;25.55;;
29044;SDS011;16133;49.486;12.176;2022-12-18T00:14:58;87.15;;;25.70;;
29044;SDS011;16133;49.486;12.176;2022-12-18T00:17:24;81.32;;;26.13;;
29044;SDS011;16133;49.486;12.176;2022-12-18T00:19:50;80.75;;;24.40;;
29044;SDS011;16133;49.486;12.176;2022-12-18T00:22:15;76.53;;;25.40;;
29044;SDS011;16133;49.486;12.176;2022-12-18T00:24:40;70.50;;;23.73;;
29044;SDS011;16133;49.486;12.176;2022-12-18T00:27:05;75.72;;;22.50;;
29044;SDS011;16133;49.486;12.176;2022-12-18T00:29:31;77.57;;;22.08;;
29044;SDS011;16133;49.486;12.176;2022-12-18T00:31:56;71.28;;;22.27;;
29044;SDS011;16133;49.486;12.176;2022-12-18T00:34:21;75.00;;;24.15;;
29044;SDS011;16133;49.486;12.176;2022-12-18T00:36:47;73.65;;;23.55;;
29044;SDS011;16133;49.486;12.176;2022-12-18T00:39:13;88.82;;;25.08;;
29044;SDS011;16133;49.486;12.176;2022-12-18T00:41:38;80.82;;;23.83;;
29044;SDS011;16133;49.486;12.176;2022-12-18T00:44:22;90.15;;;26.08;;
29044;SDS011;16133;49.486;12.176;2022-12-18T00:46:47;114.10;;;29.98;;
29044;SDS011;16133;49.486;12.176;2022-12-18T00:49:13;111.32;;;29.63;;
29044;SDS011;16133;49.486;12.176;2022-12-18T00:51:39;97.20;;;29.27;;
29044;SDS011;16133;49.486;12.176;2022-12-18T00:54:05;100.18;;;28.08;;
29044;SDS011;16133;49.486;12.176;2022-12-18T00:56:30;106.10;;;29.25;;
29044;SDS011;16133;49.486;12.176;2022-12-18T00:58:56;112.28;;;28.75;;
29044;SDS011;16133;49.486;12.176;2022-12-18T01:01:24;108.13;;;27.48;;
29044;SDS011;16133;49.486;12.176;2022-12-18T01:03:49;99.30;;;28.10;;
29044;SDS011;16133;49.486;12.176;2022-12-18T01:06:15;101.03;;;28.92;;
29044;SDS011;16133;49.486;12.176;2022-12-18T01:08:44;106.43;;;31.55;;
29044;SDS011;16133;49.486;12.176;2022-12-18T01:11:11;102.32;;;30.45;;
29044;SDS011;16133;49.486;12.176;2022-12-18T01:13:41;105.78;;;29.30;;
29044;SDS011;16133;49.486;12.176;2022-12-18T01:16:06;90.38;;;25.15;;
29044;SDS011;16133;49.486;12.176;2022-12-18T01:18:33;101.75;;;27.45;;
29044;SDS011;16133;49.486;12.176;2022-12-18T01:20:59;84.97;;;23.58;;
29044;SDS011;16133;49.486;12.176;2022-12-18T01:23:24;84.75;;;22.42;;
29044;SDS011;16133;49.486;12.176;2022-12-18T01:25:50;83.30;;;22.52;;
29044;SDS011;16133;49.486;12.176;2022-12-18T01:28:15;75.63;;;21.73;;
29044;SDS011;16133;49.486;12.176;2022-12-18T01:30:40;65.75;;;20.55;;
29044;SDS011;16133;49.486;12.176;2022-12-18T01:33:05;81.35;;;21.98;;
29044;SDS011;16133;49.486;12.176;2022-12-18T01:35:31;72.10;;;20.23;;
29044;SDS011;16133;49.486;12.176;2022-12-18T01:37:56;67.20;;;19.88;;
29044;SDS011;16133;49.486;12.176;2022-12-18T01:40:22;68.57;;;20.13;;
29044;SDS011;16133;49.486;12.176;2022-12-18T01:42:51;66.88;;;19.55;;
29044;SDS011;16133;49.486;12.176;2022-12-18T01:47:43;64.72;;;18.63;;
29044;SDS011;16133;49.486;12.176;2022-12-18T01:50:15;60.55;;;18.17;;
29044;SDS011;16133;49.486;12.176;2022-12-18T01:55:29;65.35;;;19.58;;
29044;SDS011;16133;49.486;12.176;2022-12-18T01:57:58;62.35;;;18.40;;
29044;SDS011;16133;49.486;12.176;2022-12-18T02:00:25;63.15;;;19.15;;
29044;SDS011;16133;49.486;12.176;2022-12-18T02:02:51;62.42;;;18.75;;
29044;SDS011;16133;49.486;12.176;2022-12-18T02:05:19;67.55;;;21.23;;
29044;SDS011;16133;49.486;12.176;2022-12-18T02:10:34;68.57;;;19.48;;
29044;SDS011;16133;49.486;12.176;2022-12-18T02:13:19;66.97;;;18.58;;
29044;SDS011;16133;49.486;12.176;2022-12-18T02:16:01;60.53;;;19.08;;
29044;SDS011;16133;49.486;12.176;2022-12-18T02:18:38;62.08;;;18.05;;
29044;SDS011;16133;49.486;12.176;2022-12-18T02:23:54;51.05;;;16.58;;
29044;SDS011;16133;49.486;12.176;2022-12-18T02:26:29;62.30;;;18.60;;
29044;SDS011;16133;49.486;12.176;2022-12-18T02:29:04;64.25;;;19.35;;
29044;SDS011;16133;49.486;12.176;2022-12-18T02:31:35;54.45;;;17.75;;
29044;SDS011;16133;49.486;12.176;2022-12-18T02:34:04;58.03;;;18.67;;
29044;SDS011;16133;49.486;12.176;2022-12-18T02:36:32;60.55;;;19.10;;
29044;SDS011;16133;49.486;12.176;2022-12-18T02:38:59;48.45;;;17.25;;
29044;SDS011;16133;49.486;12.176;2022-12-18T02:41:26;62.65;;;20.05;;
29044;SDS011;16133;49.486;12.176;2022-12-18T02:43:56;55.47;;;15.80;;
29044;SDS011;16133;49.486;12.176;2022-12-18T02:46:35;49.42;;;16.90;;
29044;SDS011;16133;49.486;12.176;2022-12-18T02:52:09;51.95;;;16.52;;
29044;SDS011;16133;49.486;12.176;2022-12-18T02:54:35;47.40;;;15.57;;
29044;SDS011;16133;49.486;12.176;2022-12-18T03:00:18;37.28;;;13.82;;
29044;SDS011;16133;49.486;12.176;2022-12-18T03:02:58;43.30;;;14.45;;
29044;SDS011;16133;49.486;12.176;2022-12-18T03:05:35;44.10;;;12.68;;
29044;SDS011;16133;49.486;12.176;2022-12-18T03:08:06;50.83;;;15.18;;
29044;SDS011;16133;49.486;12.176;2022-12-18T03:10:56;43.50;;;13.73;;
29044;SDS011;16133;49.486;12.176;2022-12-18T03:13:27;38.67;;;13.68;;
29044;SDS011;16133;49.486;12.176;2022-12-18T03:15:57;37.75;;;13.23;;
29044;SDS011;16133;49.486;12.176;2022-12-18T03:18:25;41.50;;;13.95;;
29044;SDS011;16133;49.486;12.176;2022-12-18T03:20:57;56.47;;;16.55;;
29044;SDS011;16133;49.486;12.176;2022-12-18T03:23:27;45.70;;;14.73;;
29044;SDS011;16133;49.486;12.176;2022-12-18T03:25:59;53.30;;;17.25;;
29044;SDS011;16133;49.486;12.176;2022-12-18T03:28:30;55.20;;;17.48;;
29044;SDS011;16133;49.486;12.176;2022-12-18T03:30:59;56.17;;;18.90;;
29044;SDS011;16133;49.486;12.176;2022-12-18T03:33:31;57.42;;;18.00;;
29044;SDS011;16133;49.486;12.176;2022-12-18T03:36:02;57.88;;;18.67;;
29044;SDS011;16133;49.486;12.176;2022-12-18T03:38:28;53.33;;;19.05;;
29044;SDS011;16133;49.486;12.176;2022-12-18T03:43:47;44.38;;;15.48;;
29044;SDS011;16133;49.486;12.176;2022-12-18T03:46:23;57.65;;;18.35;;
29044;SDS011;16133;49.486;12.176;2022-12-18T03:52:05;58.47;;;16.30;;
29044;SDS011;16133;49.486;12.176;2022-12-18T03:54:34;47.22;;;16.15;;
29044;SDS011;16133;49.486;12.176;2022-12-18T03:57:03;48.75;;;15.63;;
29044;SDS011;16133;49.486;12.176;2022-12-18T03:59:34;55.13;;;16.90;;
29044;SDS011;16133;49.486;12.176;2022-12-18T04:02:02;45.50;;;14.30;;
29044;SDS011;16133;49.486;12.176;2022-12-18T04:04:31;53.53;;;15.77;;
29044;SDS011;16133;49.486;12.176;2022-12-18T04:06:59;50.40;;;16.13;;
29044;SDS011;16133;49.486;12.176;2022-12-18T04:09:26;50.67;;;14.73;;
29044;SDS011;16133;49.486;12.176;2022-12-18T04:11:52;49.17;;;15.85;;
29044;SDS011;16133;49.486;12.176;2022-12-18T04:14:18;45.53;;;14.48;;
29044;SDS011;16133;49.486;12.176;2022-12-18T04:16:43;55.63;;;16.30;;
29044;SDS011;16133;49.486;12.176;2022-12-18T04:19:08;55.00;;;16.40;;
29044;SDS011;16133;49.486;12.176;2022-12-18T04:21:34;48.97;;;16.05;;
29044;SDS011;16133;49.486;12.176;2022-12-18T04:23:59;46.58;;;15.27;;
29044;SDS011;16133;49.486;12.176;2022-12-18T04:26:25;44.65;;;16.02;;
29044;SDS011;16133;49.486;12.176;2022-12-18T04:28:50;47.83;;;15.30;;
29044;SDS011;16133;49.486;12.176;2022-12-18T04:31:15;48.05;;;15.65;;
29044;SDS011;16133;49.486;12.176;2022-12-18T04:33:41;47.63;;;16.55;;
29044;SDS011;16133;49.486;12.176;2022-12-18T04:36:06;58.03;;;17.77;;
29044;SDS011;16133;49.486;12.176;2022-12-18T04:38:32;60.83;;;16.15;;
29044;SDS011;16133;49.486;12.176;2022-12-18T04:40:57;48.67;;;15.55;;
29044;SDS011;16133;49.486;12.176;2022-12-18T04:43:22;58.60;;;16.58;;
29044;SDS011;16133;49.486;12.176;2022-12-18T04:45:48;55.55;;;17.80;;
29044;SDS011;16133;49.486;12.176;2022-12-18T04:48:13;63.35;;;19.00;;
29044;SDS011;16133;49.486;12.176;2022-12-18T04:50:39;59.10;;;18.83;;
29044;SDS011;16133;49.486;12.176;2022-12-18T04:53:04;68.40;;;21.33;;
29044;SDS011;16133;49.486;12.176;2022-12-18T04:55:29;70.78;;;20.60;;
29044;SDS011;16133;49.486;12.176;2022-12-18T04:57:55;60.08;;;18.55;;
29044;SDS011;16133;49.486;12.176;2022-12-18T05:00:20;62.03;;;19.23;;
29044;SDS011;16133;49.486;12.176;2022-12-18T05:02:47;58.90;;;18.17;;
29044;SDS011;16133;49.486;12.176;2022-12-18T05:05:12;56.83;;;18.17;;
29044;SDS011;16133;49.486;12.176;2022-12-18T05:07:37;62.47;;;18.65;;
29044;SDS011;16133;49.486;12.176;2022-12-18T05:10:03;63.40;;;17.23;;
29044;SDS011;16133;49.486;12.176;2022-12-18T05:12:29;60.03;;;17.13;;
29044;SDS011;16133;49.486;12.176;2022-12-18T05:14:56;61.22;;;17.58;;
29044;SDS011;16133;49.486;12.176;2022-12-18T05:17:21;57.03;;;18.75;;
29044;SDS011;16133;49.486;12.176;2022-12-18T05:19:46;57.83;;;17.92;;
29044;SDS011;16133;49.486;12.176;2022-12-18T05:22:12;57.70;;;17.13;;
29044;SDS011;16133;49.486;12.176;2022-12-18T05:24:37;64.20;;;17.88;;
29044;SDS011;16133;49.486;12.176;2022-12-18T05:27:03;59.70;;;17.85;;
29044;SDS011;16133;49.486;12.176;2022-12-18T05:29:28;58.17;;;17.08;;
29044;SDS011;16133;49.486;12.176;2022-12-18T05:31:53;69.15;;;17.92;;
29044;SDS011;16133;49.486;12.176;2022-12-18T05:34:19;63.67;;;19.77;;
29044;SDS011;16133;49.486;12.176;2022-12-18T05:36:44;61.95;;;17.25;;
29044;SDS011;16133;49.486;12.176;2022-12-18T05:39:09;59.83;;;18.50;;
29044;SDS011;16133;49.486;12.176;2022-12-18T05:41:35;52.08;;;17.10;;
29044;SDS011;16133;49.486;12.176;2022-12-18T05:44:00;58.13;;;18.23;;
29044;SDS011;16133;49.486;12.176;2022-12-18T05:46:26;53.83;;;16.92;;
29044;SDS011;16133;49.486;12.176;2022-12-18T05:48:51;62.38;;;18.52;;
29044;SDS011;16133;49.486;12.176;2022-12-18T05:51:18;56.72;;;18.50;;
29044;SDS011;16133;49.486;12.176;2022-12-18T05:53:46;59.88;;;17.90;;
29044;SDS011;16133;49.486;12.176;2022-12-18T05:56:14;59.33;;;18.88;;
29044;SDS011;16133;49.486;12.176;2022-12-18T05:58:42;54.83;;;17.20;;
29044;SDS011;16133;49.486;12.176;2022-12-18T06:01:09;59.28;;;18.95;;
29044;SDS011;16133;49.486;12.176;2022-12-18T06:03:36;56.17;;;17.35;;
29044;SDS011;16133;49.486;12.176;2022-12-18T06:06:02;54.30;;;17.20;;
29044;SDS011;16133;49.486;12.176;2022-12-18T06:08:28;50.78;;;15.75;;
29044;SDS011;16133;49.486;12.176;2022-12-18T06:10:53;48.33;;;14.05;;
29044;SDS011;16133;49.486;12.176;2022-12-18T06:13:19;47.30;;;14.80;;
29044;SDS011;16133;49.486;12.176;2022-12-18T06:15:45;52.40;;;15.32;;
29044;SDS011;16133;49.486;12.176;2022-12-18T06:18:11;55.78;;;15.98;;
29044;SDS011;16133;49.486;12.176;2022-12-18T06:20:36;51.60;;;16.48;;
29044;SDS011;16133;49.486;12.176;2022-12-18T06:23:04;61.40;;;17.15;;
29044;SDS011;16133;49.486;12.176;2022-12-18T06:25:30;49.05;;;15.90;;
29044;SDS011;16133;49.486;12.176;2022-12-18T06:27:56;50.88;;;14.82;;
29044;SDS011;16133;49.486;12.176;2022-12-18T06:30:21;57.35;;;17.55;;
29044;SDS011;16133;49.486;12.176;2022-12-18T06:32:47;47.70;;;15.85;;
29044;SDS011;16133;49.486;12.176;2022-12-18T06:35:13;51.28;;;16.40;;
29044;SDS011;16133;49.486;12.176;2022-12-18T06:37:39;51.25;;;14.60;;
29044;SDS011;16133;49.486;12.176;2022-12-18T06:40:05;47.78;;;14.60;;
29044;SDS011;16133;49.486;12.176;2022-12-18T06:42:31;47.25;;;15.85;;
29044;SDS011;16133;49.486;12.176;2022-12-18T06:44:57;58.42;;;17.65;;
29044;SDS011;16133;49.486;12.176;2022-12-18T06:47:22;48.70;;;15.40;;
29044;SDS011;16133;49.486;12.176;2022-12-18T06:49:48;52.50;;;15.20;;
29044;SDS011;16133;49.486;12.176;2022-12-18T06:52:13;53.58;;;16.70;;
29044;SDS011;16133;49.486;12.176;2022-12-18T06:54:39;57.20;;;16.48;;
29044;SDS011;16133;49.486;12.176;2022-12-18T06:57:04;56.58;;;15.55;;
29044;SDS011;16133;49.486;12.176;2022-12-18T06:59:30;53.97;;;15.88;;
29044;SDS011;16133;49.486;12.176;2022-12-18T07:01:55;54.65;;;16.42;;
29044;SDS011;16133;49.486;12.176;2022-12-18T07:04:20;47.78;;;15.45;;
29044;SDS011;16133;49.486;12.176;2022-12-18T07:06:46;52.38;;;15.38;;
29044;SDS011;16133;49.486;12.176;2022-12-18T07:09:11;49.65;;;17.10;;
29044;SDS011;16133;49.486;12.176;2022-12-18T07:11:37;56.70;;;17.02;;
29044;SDS011;16133;49.486;12.176;2022-12-18T07:14:02;58.47;;;16.50;;
29044;SDS011;16133;49.486;12.176;2022-12-18T07:16:27;47.03;;;15.20;;
29044;SDS011;16133;49.486;12.176;2022-12-18T07:18:55;59.97;;;15.55;;
29044;SDS011;16133;49.486;12.176;2022-12-18T07:21:21;57.08;;;17.05;;
29044;SDS011;16133;49.486;12.176;2022-12-18T07:23:48;58.28;;;16.88;;
29044;SDS011;16133;49.486;12.176;2022-12-18T07:26:14;55.95;;;16.17;;
29044;SDS011;16133;49.486;12.176;2022-12-18T07:28:41;54.20;;;17.00;;
29044;SDS011;16133;49.486;12.176;2022-12-18T07:31:09;45.33;;;15.30;;
29044;SDS011;16133;49.486;12.176;2022-12-18T07:33:37;50.00;;;15.65;;
29044;SDS011;16133;49.486;12.176;2022-12-18T07:36:03;46.75;;;14.85;;
29044;SDS011;16133;49.486;12.176;2022-12-18T07:38:30;51.50;;;15.40;;
29044;SDS011;16133;49.486;12.176;2022-12-18T07:41:00;53.25;;;17.00;;
29044;SDS011;16133;49.486;12.176;2022-12-18T07:43:36;54.58;;;15.45;;
29044;SDS011;16133;49.486;12.176;2022-12-18T07:46:02;55.60;;;15.38;;
29044;SDS011;16133;49.486;12.176;2022-12-18T07:48:28;50.33;;;15.52;;
29044;SDS011;16133;49.486;12.176;2022-12-18T07:50:57;53.75;;;16.52;;
29044;SDS011;16133;49.486;12.176;2022-12-18T07:53:23;51.38;;;16.92;;
29044;SDS011;16133;49.486;12.176;2022-12-18T07:55:49;51.20;;;15.13;;
29044;SDS011;16133;49.486;12.176;2022-12-18T07:58:19;49.83;;;15.57;;
29044;SDS011;16133;49.486;12.176;2022-12-18T08:00:44;54.63;;;15.60;;
29044;SDS011;16133;49.486;12.176;2022-12-18T08:03:13;54.45;;;14.68;;
29044;SDS011;16133;49.486;12.176;2022-12-18T08:05:38;54.20;;;15.55;;
29044;SDS011;16133;49.486;12.176;2022-12-18T08:08:03;52.35;;;16.45;;
29044;SDS011;16133;49.486;12.176;2022-12-18T08:10:29;52.35;;;17.65;;
29044;SDS011;16133;49.486;12.176;2022-12-18T08:12:54;48.22;;;15.70;;
29044;SDS011;16133;49.486;12.176;2022-12-18T08:15:20;50.10;;;15.20;;
29044;SDS011;16133;49.486;12.176;2022-12-18T08:17:45;46.28;;;15.65;;
29044;SDS011;16133;49.486;12.176;2022-12-18T08:20:11;52.85;;;15.90;;
29044;SDS011;16133;49.486;12.176;2022-12-18T08:22:38;45.97;;;15.00;;
29044;SDS011;16133;49.486;12.176;2022-12-18T08:25:04;53.22;;;14.02;;
29044;SDS011;16133;49.486;12.176;2022-12-18T08:27:30;51.65;;;15.60;;
29044;SDS011;16133;49.486;12.176;2022-12-18T08:29:56;43.92;;;15.02;;
29044;SDS011;16133;49.486;12.176;2022-12-18T08:32:22;46.58;;;13.90;;
29044;SDS011;16133;49.486;12.176;2022-12-18T08:34:48;42.95;;;14.13;;
29044;SDS011;16133;49.486;12.176;2022-12-18T08:37:13;47.08;;;15.65;;
29044;SDS011;16133;49.486;12.176;2022-12-18T08:39:38;44.80;;;13.85;;
29044;SDS011;16133;49.486;12.176;2022-12-18T08:42:04;42.15;;;15.55;;
29044;SDS011;16133;49.486;12.176;2022-12-18T08:44:48;49.15;;;18.40;;
29044;SDS011;16133;49.486;12.176;2022-12-18T08:47:13;51.55;;;15.63;;
29044;SDS011;16133;49.486;12.176;2022-12-18T08:49:38;40.75;;;13.65;;
29044;SDS011;16133;49.486;12.176;2022-12-18T08:52:04;43.35;;;16.17;;
29044;SDS011;16133;49.486;12.176;2022-12-18T08:54:29;40.83;;;15.55;;
29044;SDS011;16133;49.486;12.176;2022-12-18T08:56:55;41.80;;;14.27;;
29044;SDS011;16133;49.486;12.176;2022-12-18T08:59:20;48.28;;;16.02;;
29044;SDS011;16133;49.486;12.176;2022-12-18T09:01:46;43.10;;;15.70;;
29044;SDS011;16133;49.486;12.176;2022-12-18T09:04:12;39.58;;;14.50;;
29044;SDS011;16133;49.486;12.176;2022-12-18T09:06:38;40.95;;;13.55;;
29044;SDS011;16133;49.486;12.176;2022-12-18T09:09:04;43.05;;;15.27;;
29044;SDS011;16133;49.486;12.176;2022-12-18T09:11:31;40.25;;;14.35;;
29044;SDS011;16133;49.486;12.176;2022-12-18T09:13:57;37.40;;;12.77;;
29044;SDS011;16133;49.486;12.176;2022-12-18T09:16:24;41.70;;;13.38;;
29044;SDS011;16133;49.486;12.176;2022-12-18T09:18:52;40.17;;;14.43;;
29044;SDS011;16133;49.486;12.176;2022-12-18T09:21:24;36.97;;;13.45;;
29044;SDS011;16133;49.486;12.176;2022-12-18T09:23:51;40.58;;;14.07;;
29044;SDS011;16133;49.486;12.176;2022-12-18T09:26:18;42.83;;;15.00;;
29044;SDS011;16133;49.486;12.176;2022-12-18T09:28:44;40.78;;;15.45;;
29044;SDS011;16133;49.486;12.176;2022-12-18T09:31:10;60.97;;;16.48;;
29044;SDS011;16133;49.486;12.176;2022-12-18T09:33:37;35.67;;;14.60;;
29044;SDS011;16133;49.486;12.176;2022-12-18T09:36:03;43.22;;;15.00;;
29044;SDS011;16133;49.486;12.176;2022-12-18T09:38:31;38.92;;;13.35;;
29044;SDS011;16133;49.486;12.176;2022-12-18T09:40:59;39.80;;;13.07;;
29044;SDS011;16133;49.486;12.176;2022-12-18T09:43:33;40.17;;;13.35;;
29044;SDS011;16133;49.486;12.176;2022-12-18T09:46:08;46.38;;;13.55;;
29044;SDS011;16133;49.486;12.176;2022-12-18T09:48:42;36.72;;;12.70;;
29044;SDS011;16133;49.486;12.176;2022-12-18T09:51:13;31.60;;;12.13;;
29044;SDS011;16133;49.486;12.176;2022-12-18T09:53:45;38.58;;;13.30;;
29044;SDS011;16133;49.486;12.176;2022-12-18T09:56:16;39.53;;;11.73;;
29044;SDS011;16133;49.486;12.176;2022-12-18T09:58:49;40.35;;;12.88;;
29044;SDS011;16133;49.486;12.176;2022-12-18T10:01:27;32.25;;;11.65;;
29044;SDS011;16133;49.486;12.176;2022-12-18T10:03:54;35.60;;;12.88;;
29044;SDS011;16133;49.486;12.176;2022-12-18T10:06:28;38.03;;;13.05;;
29044;SDS011;16133;49.486;12.176;2022-12-18T10:14:47;37.80;;;12.02;;
29044;SDS011;16133;49.486;12.176;2022-12-18T10:20:05;39.45;;;13.68;;
29044;SDS011;16133;49.486;12.176;2022-12-18T10:27:41;33.72;;;12.20;;
29044;SDS011;16133;49.486;12.176;2022-12-18T10:30:14;37.92;;;12.65;;
29044;SDS011;16133;49.486;12.176;2022-12-18T10:32:41;34.83;;;11.15;;
29044;SDS011;16133;49.486;12.176;2022-12-18T10:35:40;35.10;;;12.25;;
29044;SDS011;16133;49.486;12.176;2022-12-18T10:40:30;35.92;;;13.00;;
29044;SDS011;16133;49.486;12.176;2022-12-18T10:43:11;41.63;;;14.15;;
29044;SDS011;16133;49.486;12.176;2022-12-18T10:45:38;41.08;;;13.23;;
29044;SDS011;16133;49.486;12.176;2022-12-18T10:48:04;43.72;;;13.88;;
29044;SDS011;16133;49.486;12.176;2022-12-18T10:50:42;41.33;;;13.75;;
29044;SDS011;16133;49.486;12.176;2022-12-18T10:53:14;46.25;;;14.05;;
29044;SDS011;16133;49.486;12.176;2022-12-18T10:55:45;35.50;;;12.83;;
29044;SDS011;16133;49.486;12.176;2022-12-18T11:01:02;42.38;;;14.85;;
29044;SDS011;16133;49.486;12.176;2022-12-18T11:06:19;39.33;;;13.52;;
29044;SDS011;16133;49.486;12.176;2022-12-18T11:11:25;38.45;;;13.85;;
29044;SDS011;16133;49.486;12.176;2022-12-18T11:16:20;37.45;;;13.32;;
29044;SDS011;16133;49.486;12.176;2022-12-18T11:18:45;46.58;;;13.85;;
29044;SDS011;16133;49.486;12.176;2022-12-18T11:21:11;49.95;;;15.45;;
29044;SDS011;16133;49.486;12.176;2022-12-18T11:23:45;39.33;;;13.98;;
29044;SDS011;16133;49.486;12.176;2022-12-18T11:26:14;40.38;;;12.65;;
29044;SDS011;16133;49.486;12.176;2022-12-18T11:28:50;47.75;;;14.70;;
29044;SDS011;16133;49.486;12.176;2022-12-18T11:31:19;32.35;;;13.05;;
29044;SDS011;16133;49.486;12.176;2022-12-18T11:33:52;47.88;;;14.40;;
29044;SDS011;16133;49.486;12.176;2022-12-18T11:36:17;33.33;;;13.45;;
29044;SDS011;16133;49.486;12.176;2022-12-18T11:38:44;41.17;;;13.48;;
29044;SDS011;16133;49.486;12.176;2022-12-18T11:44:11;43.05;;;13.90;;
29044;SDS011;16133;49.486;12.176;2022-12-18T11:46:46;37.17;;;13.07;;
29044;SDS011;16133;49.486;12.176;2022-12-18T11:49:27;35.72;;;12.35;;
29044;SDS011;16133;49.486;12.176;2022-12-18T11:54:36;36.33;;;11.27;;
29044;SDS011;16133;49.486;12.176;2022-12-18T12:08:08;38.03;;;11.73;;
29044;SDS011;16133;49.486;12.176;2022-12-18T12:21:43;33.08;;;13.15;;
29044;SDS011;16133;49.486;12.176;2022-12-18T12:29:45;44.05;;;14.93;;
29044;SDS011;16133;49.486;12.176;2022-12-18T12:35:29;38.47;;;12.40;;
29044;SDS011;16133;49.486;12.176;2022-12-18T12:40:36;37.88;;;13.82;;
29044;SDS011;16133;49.486;12.176;2022-12-18T12:46:15;38.42;;;13.07;;
29044;SDS011;16133;49.486;12.176;2022-12-18T12:48:58;38.03;;;13.48;;
29044;SDS011;16133;49.486;12.176;2022-12-18T12:51:36;29.17;;;11.18;;
29044;SDS011;16133;49.486;12.176;2022-12-18T12:54:08;30.80;;;11.70;;
29044;SDS011;16133;49.486;12.176;2022-12-18T12:57:41;35.83;;;13.15;;
29044;SDS011;16133;49.486;12.176;2022-12-18T13:08:26;36.63;;;12.05;;
29044;SDS011;16133;49.486;12.176;2022-12-18T13:10:53;35.97;;;11.88;;
29044;SDS011;16133;49.486;12.176;2022-12-18T13:13:49;31.95;;;12.23;;
29044;SDS011;16133;49.486;12.176;2022-12-18T13:16:18;38.05;;;13.20;;
29044;SDS011;16133;49.486;12.176;2022-12-18T13:18:51;37.60;;;13.18;;
29044;SDS011;16133;49.486;12.176;2022-12-18T13:21:29;36.55;;;11.82;;
29044;SDS011;16133;49.486;12.176;2022-12-18T13:23:57;32.67;;;12.60;;
29044;SDS011;16133;49.486;12.176;2022-12-18T13:26:44;34.10;;;11.05;;
29044;SDS011;16133;49.486;12.176;2022-12-18T13:29:10;30.92;;;11.57;;
29044;SDS011;16133;49.486;12.176;2022-12-18T13:36:41;32.50;;;9.82;;
29044;SDS011;16133;49.486;12.176;2022-12-18T13:41:35;27.80;;;10.23;;
29044;SDS011;16133;49.486;12.176;2022-12-18T13:47:00;26.00;;;10.68;;
29044;SDS011;16133;49.486;12.176;2022-12-18T13:49:41;35.08;;;11.05;;
29044;SDS011;16133;49.486;12.176;2022-12-18T13:52:16;24.67;;;9.40;;
29044;SDS011;16133;49.486;12.176;2022-12-18T13:54:45;31.13;;;9.80;;
29044;SDS011;16133;49.486;12.176;2022-12-18T13:57:37;28.20;;;10.68;;
29044;SDS011;16133;49.486;12.176;2022-12-18T14:02:50;36.15;;;12.55;;
29044;SDS011;16133;49.486;12.176;2022-12-18T14:05:25;32.30;;;11.75;;
29044;SDS011;16133;49.486;12.176;2022-12-18T14:07:59;36.45;;;12.88;;
29044;SDS011;16133;49.486;12.176;2022-12-18T14:10:27;31.40;;;11.68;;
29044;SDS011;16133;49.486;12.176;2022-12-18T14:12:53;27.92;;;10.13;;
29044;SDS011;16133;49.486;12.176;2022-12-18T14:17:51;28.83;;;10.75;;
29044;SDS011;16133;49.486;12.176;2022-12-18T14:20:19;31.25;;;10.15;;
29044;SDS011;16133;49.486;12.176;2022-12-18T14:22:45;36.60;;;12.43;;
29044;SDS011;16133;49.486;12.176;2022-12-18T14:25:21;36.05;;;11.43;;
29044;SDS011;16133;49.486;12.176;2022-12-18T14:30:36;38.47;;;13.50;;
29044;SDS011;16133;49.486;12.176;2022-12-18T14:33:13;42.22;;;14.85;;
29044;SDS011;16133;49.486;12.176;2022-12-18T14:35:41;36.58;;;12.27;;
29044;SDS011;16133;49.486;12.176;2022-12-18T14:40:46;34.75;;;12.77;;
29044;SDS011;16133;49.486;12.176;2022-12-18T14:43:12;28.25;;;11.10;;
29044;SDS011;16133;49.486;12.176;2022-12-18T14:48:51;28.17;;;10.82;;
29044;SDS011;16133;49.486;12.176;2022-12-18T14:53:53;31.58;;;12.10;;
29044;SDS011;16133;49.486;12.176;2022-12-18T14:56:35;37.60;;;12.80;;
29044;SDS011;16133;49.486;12.176;2022-12-18T14:59:14;46.55;;;14.52;;
29044;SDS011;16133;49.486;12.176;2022-12-18T15:01:56;35.35;;;13.70;;
29044;SDS011;16133;49.486;12.176;2022-12-18T15:04:35;38.03;;;14.02;;
29044;SDS011;16133;49.486;12.176;2022-12-18T15:09:29;38.28;;;14.80;;
29044;SDS011;16133;49.486;12.176;2022-12-18T15:11:59;47.20;;;15.68;;
29044;SDS011;16133;49.486;12.176;2022-12-18T15:14:31;41.10;;;14.70;;
29044;SDS011;16133;49.486;12.176;2022-12-18T15:17:06;43.78;;;16.73;;
29044;SDS011;16133;49.486;12.176;2022-12-18T15:19:44;43.65;;;15.45;;
29044;SDS011;16133;49.486;12.176;2022-12-18T15:22:21;44.20;;;14.65;;
29044;SDS011;16133;49.486;12.176;2022-12-18T15:24:52;44.30;;;16.35;;
29044;SDS011;16133;49.486;12.176;2022-12-18T15:27:24;48.30;;;16.23;;
29044;SDS011;16133;49.486;12.176;2022-12-18T15:32:48;44.83;;;16.38;;
29044;SDS011;16133;49.486;12.176;2022-12-18T15:35:20;52.85;;;18.48;;
29044;SDS011;16133;49.486;12.176;2022-12-18T15:37:47;39.00;;;16.30;;
29044;SDS011;16133;49.486;12.176;2022-12-18T15:40:18;46.67;;;18.15;;
29044;SDS011;16133;49.486;12.176;2022-12-18T15:42:45;42.73;;;16.87;;
29044;SDS011;16133;49.486;12.176;2022-12-18T15:45:30;47.33;;;16.88;;
29044;SDS011;16133;49.486;12.176;2022-12-18T15:47:56;45.72;;;17.15;;
29044;SDS011;16133;49.486;12.176;2022-12-18T15:50:21;45.90;;;18.52;;
29044;SDS011;16133;49.486;12.176;2022-12-18T15:52:48;48.40;;;18.42;;
29044;SDS011;16133;49.486;12.176;2022-12-18T15:55:17;51.83;;;19.42;;
29044;SDS011;16133;49.486;12.176;2022-12-18T15:58:04;46.00;;;17.50;;
29044;SDS011;16133;49.486;12.176;2022-12-18T16:00:30;46.85;;;17.33;;
29044;SDS011;16133;49.486;12.176;2022-12-18T16:02:56;52.83;;;18.88;;
29044;SDS011;16133;49.486;12.176;2022-12-18T16:05:21;55.10;;;19.63;;
29044;SDS011;16133;49.486;12.176;2022-12-18T16:07:48;50.28;;;19.02;;
29044;SDS011;16133;49.486;12.176;2022-12-18T16:10:13;48.40;;;18.85;;
29044;SDS011;16133;49.486;12.176;2022-12-18T16:12:39;58.97;;;21.33;;
29044;SDS011;16133;49.486;12.176;2022-12-18T16:15:05;70.35;;;23.85;;
29044;SDS011;16133;49.486;12.176;2022-12-18T16:17:31;51.90;;;18.85;;
29044;SDS011;16133;49.486;12.176;2022-12-18T16:19:57;67.30;;;21.70;;
29044;SDS011;16133;49.486;12.176;2022-12-18T16:22:23;57.75;;;19.45;;
29044;SDS011;16133;49.486;12.176;2022-12-18T16:24:51;68.28;;;24.13;;
29044;SDS011;16133;49.486;12.176;2022-12-18T16:27:18;60.97;;;23.67;;
29044;SDS011;16133;49.486;12.176;2022-12-18T16:29:44;63.60;;;22.85;;